sensor_id;sensor_type;location;lat;lon;timestamp;pressure;altitude;pressure_sealevel;temperature;humidity
13312;BME280;34033;48.672;9.376;2023-07-20T00:02:12;98376.91;;;22.67;45.89
13312;BME280;34033;48.672;9.376;2023-07-20T00:04:38;98375.94;;;22.61;45.22
13312;BME280;34033;48.672;9.376;2023-07-20T00:07:03;98372.47;;;22.48;46.00
13312;BME280;34033;48.672;9.376;2023-07-20T00:09:29;98382.91;;;22.51;44.24
13312;BME280;34033;48.672;9.376;2023-07-20T00:11:54;98386.09;;;22.53;44.42
13312;BME280;34033;48.672;9.376;2023-07-20T00:14:20;98380.06;;;22.51;43.52
13312;BME280;34033;48.672;9.376;2023-07-20T00:16:46;98383.84;;;22.48;42.79
13312;BME280;34033;48.672;9.376;2023-07-20T00:19:12;98385.75;;;22.41;43.14
13312;BME280;34033;48.672;9.376;2023-07-20T00:21:38;98378.13;;;22.29;43.38
13312;BME280;34033;48.672;9.376;2023-07-20T00:24:06;98375.59;;;21.91;43.55
13312;BME280;34033;48.672;9.376;2023-07-20T00:26:31;98382.31;;;21.97;43.30
13312;BME280;34033;48.672;9.376;2023-07-20T00:28:56;98374.41;;;22.01;44.06
13312;BME280;34033;48.672;9.376;2023-07-20T00:31:22;98381.22;;;22.04;43.49
13312;BME280;34033;48.672;9.376;2023-07-20T00:33:47;98374.13;;;22.09;43.19
13312;BME280;34033;48.672;9.376;2023-07-20T00:36:13;98380.66;;;21.87;43.60
13312;BME280;34033;48.672;9.376;2023-07-20T00:38:39;98372.00;;;22.00;43.54
13312;BME280;34033;48.672;9.376;2023-07-20T00:41:04;98370.31;;;22.02;43.22
13312;BME280;34033;48.672;9.376;2023-07-20T00:43:29;98374.63;;;22.16;43.81
13312;BME280;34033;48.672;9.376;2023-07-20T00:45:55;98374.50;;;22.38;43.58
13312;BME280;34033;48.672;9.376;2023-07-20T00:48:21;98362.78;;;22.45;43.20
13312;BME280;34033;48.672;9.376;2023-07-20T00:50:46;98372.31;;;22.42;43.38
13312;BME280;34033;48.672;9.376;2023-07-20T00:53:13;98376.56;;;22.37;43.52
13312;BME280;34033;48.672;9.376;2023-07-20T00:55:39;98375.63;;;22.50;43.37
13312;BME280;34033;48.672;9.376;2023-07-20T00:58:04;98372.59;;;22.44;44.03
13312;BME280;34033;48.672;9.376;2023-07-20T01:00:30;98381.19;;;22.53;43.49
13312;BME280;34033;48.672;9.376;2023-07-20T01:02:55;98381.66;;;22.61;43.96
13312;BME280;34033;48.672;9.376;2023-07-20T01:05:21;98387.69;;;22.72;43.79
13312;BME280;34033;48.672;9.376;2023-07-20T01:07:55;98384.38;;;22.82;43.69
13312;BME280;34033;48.672;9.376;2023-07-20T01:13:01;98384.19;;;22.59;44.42
13312;BME280;34033;48.672;9.376;2023-07-20T01:15:27;98378.00;;;22.51;44.94
13312;BME280;34033;48.672;9.376;2023-07-20T01:17:52;98383.53;;;22.36;45.32
13312;BME280;34033;48.672;9.376;2023-07-20T01:20:19;98384.31;;;22.37;45.52
13312;BME280;34033;48.672;9.376;2023-07-20T01:25:40;98389.16;;;22.18;45.40
13312;BME280;34033;48.672;9.376;2023-07-20T01:31:28;98388.41;;;21.87;46.29
13312;BME280;34033;48.672;9.376;2023-07-20T01:33:57;98388.69;;;21.80;45.20
13312;BME280;34033;48.672;9.376;2023-07-20T01:36:24;98393.38;;;21.74;45.03
13312;BME280;34033;48.672;9.376;2023-07-20T01:38:52;98394.03;;;21.78;45.68
13312;BME280;34033;48.672;9.376;2023-07-20T01:41:17;98387.25;;;21.84;45.55
13312;BME280;34033;48.672;9.376;2023-07-20T01:43:43;98389.72;;;21.95;45.42
13312;BME280;34033;48.672;9.376;2023-07-20T01:46:09;98389.28;;;21.75;44.50
13312;BME280;34033;48.672;9.376;2023-07-20T01:48:34;98386.16;;;21.82;44.59
13312;BME280;34033;48.672;9.376;2023-07-20T01:50:59;98387.88;;;21.79;44.64
13312;BME280;34033;48.672;9.376;2023-07-20T01:53:25;98386.09;;;21.73;45.47
13312;BME280;34033;48.672;9.376;2023-07-20T01:55:52;98377.38;;;21.67;45.30
13312;BME280;34033;48.672;9.376;2023-07-20T01:58:18;98383.44;;;21.47;45.55
13312;BME280;34033;48.672;9.376;2023-07-20T02:00:43;98380.63;;;21.47;45.95
13312;BME280;34033;48.672;9.376;2023-07-20T02:03:09;98380.22;;;21.36;45.97
13312;BME280;34033;48.672;9.376;2023-07-20T02:05:34;98380.78;;;21.22;46.15
13312;BME280;34033;48.672;9.376;2023-07-20T02:08:00;98385.94;;;21.14;46.36
13312;BME280;34033;48.672;9.376;2023-07-20T02:10:25;98390.47;;;21.34;46.81
13312;BME280;34033;48.672;9.376;2023-07-20T02:12:50;98386.94;;;21.51;46.45
13312;BME280;34033;48.672;9.376;2023-07-20T02:15:16;98386.69;;;21.58;46.19
13312;BME280;34033;48.672;9.376;2023-07-20T02:17:44;98385.56;;;21.87;45.69
13312;BME280;34033;48.672;9.376;2023-07-20T02:20:10;98381.13;;;21.86;45.56
13312;BME280;34033;48.672;9.376;2023-07-20T02:22:36;98379.63;;;22.03;45.56
13312;BME280;34033;48.672;9.376;2023-07-20T02:25:04;98384.25;;;22.19;45.46
13312;BME280;34033;48.672;9.376;2023-07-20T02:27:29;98386.94;;;22.22;44.58
13312;BME280;34033;48.672;9.376;2023-07-20T02:29:54;98384.88;;;22.14;44.92
13312;BME280;34033;48.672;9.376;2023-07-20T02:32:20;98385.69;;;22.23;44.93
13312;BME280;34033;48.672;9.376;2023-07-20T02:34:45;98384.78;;;22.35;45.04
13312;BME280;34033;48.672;9.376;2023-07-20T02:37:10;98383.84;;;22.48;44.99
13312;BME280;34033;48.672;9.376;2023-07-20T02:39:39;98386.09;;;22.53;44.64
13312;BME280;34033;48.672;9.376;2023-07-20T02:42:04;98386.72;;;22.48;44.29
13312;BME280;34033;48.672;9.376;2023-07-20T02:44:30;98393.03;;;22.42;44.81
13312;BME280;34033;48.672;9.376;2023-07-20T02:46:55;98396.50;;;22.46;44.52
13312;BME280;34033;48.672;9.376;2023-07-20T02:49:21;98391.28;;;22.36;44.24
13312;BME280;34033;48.672;9.376;2023-07-20T02:51:46;98401.34;;;22.19;44.62
13312;BME280;34033;48.672;9.376;2023-07-20T02:54:11;98401.63;;;22.12;45.19
13312;BME280;34033;48.672;9.376;2023-07-20T02:56:37;98404.91;;;22.01;45.47
13312;BME280;34033;48.672;9.376;2023-07-20T02:59:02;98410.66;;;22.10;45.05
13312;BME280;34033;48.672;9.376;2023-07-20T03:01:28;98402.94;;;22.29;45.26
13312;BME280;34033;48.672;9.376;2023-07-20T03:03:55;98409.91;;;22.28;44.68
13312;BME280;34033;48.672;9.376;2023-07-20T03:06:20;98403.28;;;22.22;45.16
13312;BME280;34033;48.672;9.376;2023-07-20T03:08:45;98405.00;;;22.28;44.85
13312;BME280;34033;48.672;9.376;2023-07-20T03:11:14;98401.88;;;22.35;45.00
13312;BME280;34033;48.672;9.376;2023-07-20T03:13:41;98403.75;;;22.38;44.84
13312;BME280;34033;48.672;9.376;2023-07-20T03:16:06;98407.22;;;22.33;44.82
13312;BME280;34033;48.672;9.376;2023-07-20T03:18:39;98405.31;;;22.21;44.59
13312;BME280;34033;48.672;9.376;2023-07-20T03:21:05;98399.63;;;22.21;45.43
13312;BME280;34033;48.672;9.376;2023-07-20T03:23:31;98404.19;;;22.10;45.18
13312;BME280;34033;48.672;9.376;2023-07-20T03:25:57;98411.31;;;22.14;45.66
13312;BME280;34033;48.672;9.376;2023-07-20T03:28:22;98405.97;;;22.25;45.23
13312;BME280;34033;48.672;9.376;2023-07-20T03:30:55;98412.28;;;22.29;45.07
13312;BME280;34033;48.672;9.376;2023-07-20T03:33:26;98410.13;;;22.42;44.73
13312;BME280;34033;48.672;9.376;2023-07-20T03:35:52;98421.03;;;22.44;44.56
13312;BME280;34033;48.672;9.376;2023-07-20T03:38:18;98421.06;;;22.53;44.30
13312;BME280;34033;48.672;9.376;2023-07-20T03:40:54;98422.50;;;22.58;44.21
13312;BME280;34033;48.672;9.376;2023-07-20T03:43:21;98414.41;;;22.56;44.30
13312;BME280;34033;48.672;9.376;2023-07-20T03:45:47;98417.75;;;22.55;44.58
13312;BME280;34033;48.672;9.376;2023-07-20T03:48:17;98426.59;;;22.57;44.33
13312;BME280;34033;48.672;9.376;2023-07-20T03:50:46;98429.47;;;22.66;44.54
13312;BME280;34033;48.672;9.376;2023-07-20T03:53:13;98432.63;;;22.68;44.22
13312;BME280;34033;48.672;9.376;2023-07-20T03:55:38;98435.81;;;22.70;44.11
13312;BME280;34033;48.672;9.376;2023-07-20T03:58:06;98433.72;;;22.52;44.59
13312;BME280;34033;48.672;9.376;2023-07-20T04:00:31;98425.63;;;22.51;44.78
13312;BME280;34033;48.672;9.376;2023-07-20T04:02:56;98430.19;;;22.39;45.32
13312;BME280;34033;48.672;9.376;2023-07-20T04:05:22;98429.94;;;21.84;46.82
13312;BME280;34033;48.672;9.376;2023-07-20T04:07:47;98433.13;;;21.55;47.50
13312;BME280;34033;48.672;9.376;2023-07-20T04:10:13;98439.09;;;21.14;48.45
13312;BME280;34033;48.672;9.376;2023-07-20T04:12:38;98446.03;;;20.91;49.14
13312;BME280;34033;48.672;9.376;2023-07-20T04:15:04;98442.81;;;20.67;50.17
13312;BME280;34033;48.672;9.376;2023-07-20T04:17:29;98448.53;;;20.42;51.10
13312;BME280;34033;48.672;9.376;2023-07-20T04:19:54;98443.31;;;20.28;51.25
13312;BME280;34033;48.672;9.376;2023-07-20T04:22:20;98451.03;;;20.15;51.82
13312;BME280;34033;48.672;9.376;2023-07-20T04:24:45;98451.81;;;20.15;52.06
13312;BME280;34033;48.672;9.376;2023-07-20T04:27:10;98451.03;;;20.15;51.76
13312;BME280;34033;48.672;9.376;2023-07-20T04:29:36;98451.25;;;20.20;51.74
13312;BME280;34033;48.672;9.376;2023-07-20T04:32:01;98452.72;;;20.25;51.79
13312;BME280;34033;48.672;9.376;2023-07-20T04:34:26;98451.47;;;20.26;51.78
13312;BME280;34033;48.672;9.376;2023-07-20T04:36:52;98451.81;;;20.28;51.45
13312;BME280;34033;48.672;9.376;2023-07-20T04:39:18;98456.97;;;20.33;51.22
13312;BME280;34033;48.672;9.376;2023-07-20T04:41:43;98455.94;;;20.39;51.08
13312;BME280;34033;48.672;9.376;2023-07-20T04:44:09;98448.41;;;20.46;50.89
13312;BME280;34033;48.672;9.376;2023-07-20T04:46:34;98453.41;;;20.42;50.63
13312;BME280;34033;48.672;9.376;2023-07-20T04:48:59;98442.63;;;20.49;50.21
13312;BME280;34033;48.672;9.376;2023-07-20T04:51:25;98448.16;;;20.65;50.03
13312;BME280;34033;48.672;9.376;2023-07-20T04:53:50;98458.25;;;20.66;50.25
13312;BME280;34033;48.672;9.376;2023-07-20T04:56:16;98450.19;;;20.65;50.01
13312;BME280;34033;48.672;9.376;2023-07-20T04:58:41;98459.16;;;20.63;49.96
13312;BME280;34033;48.672;9.376;2023-07-20T05:01:08;98459.50;;;20.65;50.27
13312;BME280;34033;48.672;9.376;2023-07-20T05:03:33;98459.59;;;20.74;50.20
13312;BME280;34033;48.672;9.376;2023-07-20T05:05:58;98451.28;;;20.80;50.62
13312;BME280;34033;48.672;9.376;2023-07-20T05:08:24;98462.53;;;20.84;49.92
13312;BME280;34033;48.672;9.376;2023-07-20T05:10:50;98465.16;;;20.78;49.85
13312;BME280;34033;48.672;9.376;2023-07-20T05:13:16;98465.63;;;20.76;50.18
13312;BME280;34033;48.672;9.376;2023-07-20T05:15:41;98460.38;;;20.88;50.12
13312;BME280;34033;48.672;9.376;2023-07-20T05:18:06;98455.00;;;20.90;49.90
13312;BME280;34033;48.672;9.376;2023-07-20T05:20:34;98455.19;;;20.95;49.93
13312;BME280;34033;48.672;9.376;2023-07-20T05:22:59;98455.41;;;21.01;49.94
13312;BME280;34033;48.672;9.376;2023-07-20T05:25:25;98453.84;;;21.00;49.91
13312;BME280;34033;48.672;9.376;2023-07-20T05:27:51;98450.41;;;21.05;49.93
13312;BME280;34033;48.672;9.376;2023-07-20T05:30:17;98450.41;;;21.05;49.83
13312;BME280;34033;48.672;9.376;2023-07-20T05:32:42;98448.69;;;21.07;50.07
13312;BME280;34033;48.672;9.376;2023-07-20T05:35:10;98450.94;;;21.12;49.83
13312;BME280;34033;48.672;9.376;2023-07-20T05:37:37;98454.94;;;21.15;49.85
13312;BME280;34033;48.672;9.376;2023-07-20T05:40:04;98447.69;;;21.01;49.94
13312;BME280;34033;48.672;9.376;2023-07-20T05:42:29;98454.50;;;21.04;50.08
13312;BME280;34033;48.672;9.376;2023-07-20T05:44:55;98452.78;;;21.06;50.04
13312;BME280;34033;48.672;9.376;2023-07-20T05:47:20;98453.84;;;21.00;50.12
13312;BME280;34033;48.672;9.376;2023-07-20T05:49:46;98452.66;;;21.10;50.05
13312;BME280;34033;48.672;9.376;2023-07-20T05:52:11;98450.94;;;21.12;50.01
13312;BME280;34033;48.672;9.376;2023-07-20T05:54:36;98455.59;;;21.19;49.95
13312;BME280;34033;48.672;9.376;2023-07-20T05:57:02;98455.09;;;21.33;49.57
13312;BME280;34033;48.672;9.376;2023-07-20T05:59:27;98453.50;;;21.32;49.56
13312;BME280;34033;48.672;9.376;2023-07-20T06:01:56;98462.44;;;21.43;49.58
13312;BME280;34033;48.672;9.376;2023-07-20T06:04:22;98456.00;;;21.52;49.31
13312;BME280;34033;48.672;9.376;2023-07-20T06:06:47;98459.38;;;21.59;49.37
13312;BME280;34033;48.672;9.376;2023-07-20T06:09:13;98450.59;;;21.67;48.75
13312;BME280;34033;48.672;9.376;2023-07-20T06:11:39;98457.22;;;21.73;48.83
13312;BME280;34033;48.672;9.376;2023-07-20T06:14:04;98456.16;;;21.79;48.58
13312;BME280;34033;48.672;9.376;2023-07-20T06:16:30;98457.50;;;21.87;48.77
13312;BME280;34033;48.672;9.376;2023-07-20T06:18:55;98466.69;;;21.91;48.76
13312;BME280;34033;48.672;9.376;2023-07-20T06:21:20;98462.47;;;21.96;48.82
13312;BME280;34033;48.672;9.376;2023-07-20T06:23:46;98461.22;;;22.06;48.38
13312;BME280;34033;48.672;9.376;2023-07-20T06:26:11;98460.63;;;22.11;48.17
13312;BME280;34033;48.672;9.376;2023-07-20T06:28:37;98464.13;;;22.15;48.22
13312;BME280;34033;48.672;9.376;2023-07-20T06:31:03;98457.03;;;22.20;47.55
13312;BME280;34033;48.672;9.376;2023-07-20T06:33:28;98459.25;;;22.16;47.33
13312;BME280;34033;48.672;9.376;2023-07-20T06:35:54;98458.19;;;22.00;47.97
13312;BME280;34033;48.672;9.376;2023-07-20T06:38:19;98450.66;;;22.07;47.87
13312;BME280;34033;48.672;9.376;2023-07-20T06:40:48;98444.81;;;22.10;48.10
13312;BME280;34033;48.672;9.376;2023-07-20T06:43:13;98451.97;;;22.24;48.05
13312;BME280;34033;48.672;9.376;2023-07-20T06:45:38;98447.25;;;22.30;47.55
13312;BME280;34033;48.672;9.376;2023-07-20T06:48:04;98445.22;;;22.39;48.03
13312;BME280;34033;48.672;9.376;2023-07-20T06:50:29;98450.63;;;22.46;47.80
13312;BME280;34033;48.672;9.376;2023-07-20T06:52:55;98445.44;;;22.54;47.91
13312;BME280;34033;48.672;9.376;2023-07-20T06:55:20;98450.53;;;22.59;47.03
13312;BME280;34033;48.672;9.376;2023-07-20T06:57:46;98445.56;;;22.51;46.64
13312;BME280;34033;48.672;9.376;2023-07-20T07:00:12;98450.34;;;22.54;47.06
13312;BME280;34033;48.672;9.376;2023-07-20T07:02:37;98447.00;;;22.55;46.97
13312;BME280;34033;48.672;9.376;2023-07-20T07:05:03;98450.03;;;22.61;46.88
13312;BME280;34033;48.672;9.376;2023-07-20T07:07:28;98450.84;;;22.70;46.80
13312;BME280;34033;48.672;9.376;2023-07-20T07:09:54;98445.63;;;22.69;46.98
13312;BME280;34033;48.672;9.376;2023-07-20T07:12:19;98442.28;;;22.61;47.14
13312;BME280;34033;48.672;9.376;2023-07-20T07:14:44;98452.78;;;22.82;47.05
13312;BME280;34033;48.672;9.376;2023-07-20T07:17:10;98449.50;;;22.93;46.49
13312;BME280;34033;48.672;9.376;2023-07-20T07:19:35;98446.31;;;23.00;46.03
13312;BME280;34033;48.672;9.376;2023-07-20T07:22:01;98443.00;;;23.11;45.80
13312;BME280;34033;48.672;9.376;2023-07-20T07:24:27;98435.56;;;23.13;45.56
13312;BME280;34033;48.672;9.376;2023-07-20T07:26:58;98438.88;;;23.12;45.60
13312;BME280;34033;48.672;9.376;2023-07-20T07:29:23;98437.63;;;23.13;45.49
13312;BME280;34033;48.672;9.376;2023-07-20T07:31:49;98442.19;;;23.10;45.68
13312;BME280;34033;48.672;9.376;2023-07-20T07:34:14;98448.69;;;23.11;45.90
13312;BME280;34033;48.672;9.376;2023-07-20T07:36:39;98437.44;;;23.16;45.50
13312;BME280;34033;48.672;9.376;2023-07-20T07:39:05;98434.78;;;23.04;45.50
13312;BME280;34033;48.672;9.376;2023-07-20T07:41:30;98430.81;;;23.01;45.72
13312;BME280;34033;48.672;9.376;2023-07-20T07:43:55;98435.16;;;22.57;46.55
13312;BME280;34033;48.672;9.376;2023-07-20T07:46:21;98425.41;;;22.76;46.92
13312;BME280;34033;48.672;9.376;2023-07-20T07:48:46;98430.94;;;22.88;46.03
13312;BME280;34033;48.672;9.376;2023-07-20T07:51:12;98427.94;;;22.92;46.26
13312;BME280;34033;48.672;9.376;2023-07-20T07:53:38;98441.91;;;23.08;45.93
13312;BME280;34033;48.672;9.376;2023-07-20T07:56:06;98434.59;;;22.80;46.45
13312;BME280;34033;48.672;9.376;2023-07-20T07:58:32;98428.88;;;22.80;45.95
13312;BME280;34033;48.672;9.376;2023-07-20T08:00:58;98429.84;;;22.86;46.07
13312;BME280;34033;48.672;9.376;2023-07-20T08:03:23;98429.72;;;22.99;46.05
13312;BME280;34033;48.672;9.376;2023-07-20T08:05:49;98418.78;;;22.97;46.00
13312;BME280;34033;48.672;9.376;2023-07-20T08:08:15;98432.06;;;23.18;45.91
13312;BME280;34033;48.672;9.376;2023-07-20T08:10:40;98424.94;;;23.32;45.04
13312;BME280;34033;48.672;9.376;2023-07-20T08:13:05;98423.94;;;23.44;44.19
13312;BME280;34033;48.672;9.376;2023-07-20T08:15:31;98428.09;;;23.52;43.63
13312;BME280;34033;48.672;9.376;2023-07-20T08:17:56;98422.84;;;23.60;43.74
13312;BME280;34033;48.672;9.376;2023-07-20T08:20:22;98424.28;;;23.64;43.93
13312;BME280;34033;48.672;9.376;2023-07-20T08:22:54;98416.50;;;23.56;43.73
13312;BME280;34033;48.672;9.376;2023-07-20T08:25:20;98417.63;;;23.49;43.24
13312;BME280;34033;48.672;9.376;2023-07-20T08:27:45;98421.75;;;23.30;43.75
13312;BME280;34033;48.672;9.376;2023-07-20T08:30:12;98417.47;;;23.16;44.37
13312;BME280;34033;48.672;9.376;2023-07-20T08:32:38;98410.69;;;23.23;44.53
13312;BME280;34033;48.672;9.376;2023-07-20T08:35:03;98420.00;;;23.42;44.90
13312;BME280;34033;48.672;9.376;2023-07-20T08:37:29;98414.63;;;23.53;44.21
13312;BME280;34033;48.672;9.376;2023-07-20T08:39:54;98414.63;;;23.53;43.59
13312;BME280;34033;48.672;9.376;2023-07-20T08:42:20;98419.50;;;23.43;43.94
13312;BME280;34033;48.672;9.376;2023-07-20T08:44:48;98410.50;;;23.36;44.27
13312;BME280;34033;48.672;9.376;2023-07-20T08:47:15;98415.91;;;23.52;44.39
13312;BME280;34033;48.672;9.376;2023-07-20T08:49:41;98419.84;;;23.54;44.17
13312;BME280;34033;48.672;9.376;2023-07-20T08:52:08;98422.22;;;23.56;44.38
13312;BME280;34033;48.672;9.376;2023-07-20T08:54:34;98418.09;;;23.57;43.81
13312;BME280;34033;48.672;9.376;2023-07-20T08:57:05;98420.31;;;23.62;42.86
13312;BME280;34033;48.672;9.376;2023-07-20T08:59:31;98412.31;;;23.84;43.16
13312;BME280;34033;48.672;9.376;2023-07-20T09:01:58;98418.34;;;23.77;41.35
13312;BME280;34033;48.672;9.376;2023-07-20T09:04:24;98400.25;;;23.89;42.03
13312;BME280;34033;48.672;9.376;2023-07-20T09:06:50;98401.50;;;23.88;41.69
13312;BME280;34033;48.672;9.376;2023-07-20T09:09:16;98394.13;;;24.15;42.02
13312;BME280;34033;48.672;9.376;2023-07-20T09:11:42;98386.81;;;24.46;42.01
13312;BME280;34033;48.672;9.376;2023-07-20T09:14:09;98387.25;;;24.54;40.96
13312;BME280;34033;48.672;9.376;2023-07-20T09:16:54;98395.03;;;24.77;41.25
13312;BME280;34033;48.672;9.376;2023-07-20T09:19:21;98392.06;;;24.96;39.90
13312;BME280;34033;48.672;9.376;2023-07-20T09:21:48;98392.97;;;25.16;38.19
13312;BME280;34033;48.672;9.376;2023-07-20T09:24:14;98401.16;;;24.85;38.75
13312;BME280;34033;48.672;9.376;2023-07-20T09:26:44;98392.13;;;24.86;39.59
13312;BME280;34033;48.672;9.376;2023-07-20T09:29:10;98399.66;;;24.51;39.95
13312;BME280;34033;48.672;9.376;2023-07-20T09:31:36;98390.75;;;24.49;40.13
13312;BME280;34033;48.672;9.376;2023-07-20T09:34:02;98387.50;;;24.41;40.92
13312;BME280;34033;48.672;9.376;2023-07-20T09:36:28;98402.94;;;24.35;41.13
13312;BME280;34033;48.672;9.376;2023-07-20T09:38:54;98399.88;;;24.38;40.55
13312;BME280;34033;48.672;9.376;2023-07-20T09:41:21;98410.03;;;24.39;40.66
13312;BME280;34033;48.672;9.376;2023-07-20T09:43:47;98401.94;;;24.38;40.29
13312;BME280;34033;48.672;9.376;2023-07-20T09:46:12;98388.16;;;24.60;40.54
13312;BME280;34033;48.672;9.376;2023-07-20T09:48:38;98396.44;;;24.58;40.24
13312;BME280;34033;48.672;9.376;2023-07-20T09:51:04;98398.56;;;24.72;40.42
13312;BME280;34033;48.672;9.376;2023-07-20T09:53:33;98385.97;;;24.55;39.73
13312;BME280;34033;48.672;9.376;2023-07-20T09:55:59;98383.00;;;24.73;39.64
13312;BME280;34033;48.672;9.376;2023-07-20T09:58:26;98378.53;;;24.72;39.81
13312;BME280;34033;48.672;9.376;2023-07-20T10:00:52;98388.59;;;24.91;39.29
13312;BME280;34033;48.672;9.376;2023-07-20T10:03:22;98378.91;;;24.89;39.48
13312;BME280;34033;48.672;9.376;2023-07-20T10:05:52;98378.94;;;25.04;38.16
13312;BME280;34033;48.672;9.376;2023-07-20T10:08:20;98362.88;;;25.06;38.55
13312;BME280;34033;48.672;9.376;2023-07-20T10:10:48;98358.97;;;25.33;35.75
13312;BME280;34033;48.672;9.376;2023-07-20T10:13:17;98366.72;;;25.03;35.90
13312;BME280;34033;48.672;9.376;2023-07-20T10:15:46;98367.59;;;24.95;36.10
13312;BME280;34033;48.672;9.376;2023-07-20T10:18:17;98347.78;;;25.06;36.56
13312;BME280;34033;48.672;9.376;2023-07-20T10:20:46;98349.50;;;25.12;35.62
13312;BME280;34033;48.672;9.376;2023-07-20T10:23:12;98342.19;;;25.26;35.93
13312;BME280;34033;48.672;9.376;2023-07-20T10:25:38;98346.25;;;25.49;36.00
13312;BME280;34033;48.672;9.376;2023-07-20T10:28:06;98337.97;;;25.65;35.65
13312;BME280;34033;48.672;9.376;2023-07-20T10:30:36;98337.69;;;25.63;36.16
13312;BME280;34033;48.672;9.376;2023-07-20T10:33:02;98342.72;;;25.68;36.65
13312;BME280;34033;48.672;9.376;2023-07-20T10:35:28;98336.97;;;25.54;35.73
13312;BME280;34033;48.672;9.376;2023-07-20T10:37:55;98336.19;;;25.24;36.28
13312;BME280;34033;48.672;9.376;2023-07-20T10:40:38;98332.25;;;25.36;36.72
13312;BME280;34033;48.672;9.376;2023-07-20T10:43:05;98332.63;;;25.58;36.43
13312;BME280;34033;48.672;9.376;2023-07-20T10:48:14;98325.84;;;25.41;36.48
13312;BME280;34033;48.672;9.376;2023-07-20T10:50:41;98328.69;;;25.41;36.07
13312;BME280;34033;48.672;9.376;2023-07-20T10:53:25;98321.38;;;25.69;35.93
13312;BME280;34033;48.672;9.376;2023-07-20T10:56:05;98322.94;;;25.70;35.28
13312;BME280;34033;48.672;9.376;2023-07-20T10:58:31;98316.59;;;25.96;35.34
13312;BME280;34033;48.672;9.376;2023-07-20T11:01:01;98315.03;;;26.15;34.52
13312;BME280;34033;48.672;9.376;2023-07-20T11:03:30;98304.34;;;26.30;34.46
13312;BME280;34033;48.672;9.376;2023-07-20T11:05:57;98300.34;;;26.63;34.53
13312;BME280;34033;48.672;9.376;2023-07-20T11:08:42;98310.44;;;26.78;32.95
13312;BME280;34033;48.672;9.376;2023-07-20T11:11:29;98304.00;;;26.43;33.13
13312;BME280;34033;48.672;9.376;2023-07-20T11:13:55;98304.41;;;26.36;33.55
13312;BME280;34033;48.672;9.376;2023-07-20T11:18:59;98304.78;;;26.23;33.41
13312;BME280;34033;48.672;9.376;2023-07-20T11:21:24;98306.06;;;26.42;34.08
13312;BME280;34033;48.672;9.376;2023-07-20T11:23:52;98309.31;;;26.15;33.72
13312;BME280;34033;48.672;9.376;2023-07-20T11:26:17;98314.78;;;26.13;34.01
13312;BME280;34033;48.672;9.376;2023-07-20T11:28:48;98307.66;;;26.43;33.52
13312;BME280;34033;48.672;9.376;2023-07-20T11:31:14;98299.47;;;26.77;32.96
13312;BME280;34033;48.672;9.376;2023-07-20T11:33:41;98293.03;;;27.08;32.57
13312;BME280;34033;48.672;9.376;2023-07-20T11:36:08;98294.41;;;27.12;32.76
13312;BME280;34033;48.672;9.376;2023-07-20T11:38:34;98289.97;;;27.11;32.55
13312;BME280;34033;48.672;9.376;2023-07-20T11:40:59;98295.91;;;27.59;32.54
13312;BME280;34033;48.672;9.376;2023-07-20T11:43:24;98288.16;;;27.39;31.97
13312;BME280;34033;48.672;9.376;2023-07-20T11:45:51;98296.63;;;27.03;32.00
13312;BME280;34033;48.672;9.376;2023-07-20T11:48:17;98292.25;;;26.61;32.86
13312;BME280;34033;48.672;9.376;2023-07-20T11:50:42;98281.72;;;26.32;33.10
13312;BME280;34033;48.672;9.376;2023-07-20T11:53:08;98288.78;;;25.82;33.67
13312;BME280;34033;48.672;9.376;2023-07-20T11:55:34;98282.38;;;26.07;33.86
13312;BME280;34033;48.672;9.376;2023-07-20T11:58:04;98285.13;;;26.16;33.65
13312;BME280;34033;48.672;9.376;2023-07-20T12:00:29;98277.81;;;26.15;33.22
13312;BME280;34033;48.672;9.376;2023-07-20T12:02:55;98273.88;;;26.12;33.15
13312;BME280;34033;48.672;9.376;2023-07-20T12:05:22;98270.00;;;26.15;32.39
13312;BME280;34033;48.672;9.376;2023-07-20T12:07:49;98259.41;;;26.42;32.46
13312;BME280;34033;48.672;9.376;2023-07-20T12:10:24;98261.50;;;26.41;32.67
13312;BME280;34033;48.672;9.376;2023-07-20T12:12:49;98268.88;;;26.68;32.50
13312;BME280;34033;48.672;9.376;2023-07-20T12:15:26;98260.44;;;27.05;30.92
13312;BME280;34033;48.672;9.376;2023-07-20T12:17:53;98258.59;;;27.33;30.07
13312;BME280;34033;48.672;9.376;2023-07-20T12:23:00;98250.16;;;28.30;29.40
13312;BME280;34033;48.672;9.376;2023-07-20T12:28:09;98254.84;;;27.90;29.74
13312;BME280;34033;48.672;9.376;2023-07-20T12:30:34;98252.25;;;27.87;29.28
13312;BME280;34033;48.672;9.376;2023-07-20T12:33:01;98253.13;;;27.61;29.88
13312;BME280;34033;48.672;9.376;2023-07-20T12:35:27;98238.88;;;28.20;30.33
13312;BME280;34033;48.672;9.376;2023-07-20T12:37:53;98241.50;;;28.83;28.85
13312;BME280;34033;48.672;9.376;2023-07-20T12:40:18;98237.88;;;28.35;28.27
13312;BME280;34033;48.672;9.376;2023-07-20T12:42:44;98233.28;;;28.54;28.76
13312;BME280;34033;48.672;9.376;2023-07-20T12:45:10;98235.59;;;28.44;28.50
13312;BME280;34033;48.672;9.376;2023-07-20T12:47:36;98235.00;;;28.35;28.08
13312;BME280;34033;48.672;9.376;2023-07-20T12:50:01;98227.97;;;28.36;28.72
13312;BME280;34033;48.672;9.376;2023-07-20T12:52:26;98227.47;;;28.43;28.62
13312;BME280;34033;48.672;9.376;2023-07-20T12:54:52;98229.50;;;28.26;28.38
13312;BME280;34033;48.672;9.376;2023-07-20T12:57:17;98221.09;;;28.16;28.96
13312;BME280;34033;48.672;9.376;2023-07-20T12:59:42;98223.84;;;27.94;29.66
13312;BME280;34033;48.672;9.376;2023-07-20T13:02:08;98222.41;;;28.15;29.10
13312;BME280;34033;48.672;9.376;2023-07-20T13:04:33;98208.50;;;28.73;28.02
13312;BME280;34033;48.672;9.376;2023-07-20T13:06:59;98211.44;;;29.29;27.78
13312;BME280;34033;48.672;9.376;2023-07-20T13:09:25;98203.63;;;29.46;27.59
13312;BME280;34033;48.672;9.376;2023-07-20T13:11:50;98199.41;;;29.69;27.17
13312;BME280;34033;48.672;9.376;2023-07-20T13:14:16;98195.72;;;29.69;26.81
13312;BME280;34033;48.672;9.376;2023-07-20T13:16:42;98193.38;;;29.12;27.00